sensor_id;sensor_type;location;lat;lon;timestamp;pressure;altitude;pressure_sealevel;temperature;humidity
70968;BME280;58629;48.808;8.820;2022-10-17T00:00:00;97677.56;;;12.86;98.24
70968;BME280;58629;48.808;8.820;2022-10-17T00:02:26;97672.75;;;12.81;98.23
70968;BME280;58629;48.808;8.820;2022-10-17T00:04:51;97670.13;;;12.78;98.49
70968;BME280;58629;48.808;8.820;2022-10-17T00:07:16;97671.38;;;12.73;98.83
70968;BME280;58629;48.808;8.820;2022-10-17T00:09:42;97672.56;;;12.69;98.89
70968;BME280;58629;48.808;8.820;2022-10-17T00:12:08;97676.78;;;12.66;99.20
70968;BME280;58629;48.808;8.820;2022-10-17T00:14:33;97679.16;;;12.61;98.84
70968;BME280;58629;48.808;8.820;2022-10-17T00:16:59;97677.72;;;12.56;99.01
70968;BME280;58629;48.808;8.820;2022-10-17T00:19:25;97679.63;;;12.56;99.24
70968;BME280;58629;48.808;8.820;2022-10-17T00:21:50;97675.88;;;12.53;99.43
70968;BME280;58629;48.808;8.820;2022-10-17T00:24:15;97680.84;;;12.51;100.00
70968;BME280;58629;48.808;8.820;2022-10-17T00:26:40;97682.41;;;12.49;100.00
70968;BME280;58629;48.808;8.820;2022-10-17T00:29:06;97685.56;;;12.40;99.90
70968;BME280;58629;48.808;8.820;2022-10-17T00:31:31;97681.50;;;12.36;100.00
70968;BME280;58629;48.808;8.820;2022-10-17T00:33:56;97689.50;;;12.32;100.00
70968;BME280;58629;48.808;8.820;2022-10-17T00:36:24;97687.25;;;12.31;100.00
70968;BME280;58629;48.808;8.820;2022-10-17T00:38:51;97693.72;;;12.30;100.00
70968;BME280;58629;48.808;8.820;2022-10-17T00:41:19;97695.69;;;12.26;100.00
70968;BME280;58629;48.808;8.820;2022-10-17T00:43:51;97687.72;;;12.26;100.00
70968;BME280;58629;48.808;8.820;2022-10-17T00:46:17;97695.69;;;12.26;100.00
70968;BME280;58629;48.808;8.820;2022-10-17T00:48:43;97692.63;;;12.27;100.00
70968;BME280;58629;48.808;8.820;2022-10-17T00:51:09;97691.44;;;12.28;100.00
70968;BME280;58629;48.808;8.820;2022-10-17T00:53:36;97689.97;;;12.27;100.00
70968;BME280;58629;48.808;8.820;2022-10-17T00:56:02;97691.09;;;12.26;100.00
70968;BME280;58629;48.808;8.820;2022-10-17T00:58:27;97696.06;;;12.24;100.00
70968;BME280;58629;48.808;8.820;2022-10-17T01:00:53;97697.78;;;12.11;99.32
70968;BME280;58629;48.808;8.820;2022-10-17T01:03:18;97700.16;;;12.05;99.47
70968;BME280;58629;48.808;8.820;2022-10-17T01:05:43;97695.69;;;11.99;99.28
70968;BME280;58629;48.808;8.820;2022-10-17T01:08:10;97709.06;;;11.92;98.85
70968;BME280;58629;48.808;8.820;2022-10-17T01:10:52;97702.34;;;11.84;99.03
70968;BME280;58629;48.808;8.820;2022-10-17T01:13:31;97702.84;;;11.75;100.00
70968;BME280;58629;48.808;8.820;2022-10-17T01:16:10;97707.50;;;11.68;100.00
70968;BME280;58629;48.808;8.820;2022-10-17T01:18:54;97702.94;;;11.65;100.00
70968;BME280;58629;48.808;8.820;2022-10-17T01:21:32;97709.16;;;11.55;100.00
70968;BME280;58629;48.808;8.820;2022-10-17T01:29:42;97710.66;;;11.56;100.00
70968;BME280;58629;48.808;8.820;2022-10-17T01:32:09;97707.63;;;11.54;100.00
70968;BME280;58629;48.808;8.820;2022-10-17T01:34:56;97713.41;;;11.49;100.00
70968;BME280;58629;48.808;8.820;2022-10-17T01:37:29;97701.00;;;11.39;100.00
70968;BME280;58629;48.808;8.820;2022-10-17T01:42:40;97703.00;;;11.27;100.00
70968;BME280;58629;48.808;8.820;2022-10-17T01:47:33;97703.41;;;11.26;100.00
70968;BME280;58629;48.808;8.820;2022-10-17T01:50:03;97696.22;;;11.26;100.00
70968;BME280;58629;48.808;8.820;2022-10-17T01:52:40;97694.31;;;11.27;100.00
70968;BME280;58629;48.808;8.820;2022-10-17T01:55:17;97697.72;;;11.27;100.00
70968;BME280;58629;48.808;8.820;2022-10-17T01:57:53;97697.72;;;11.27;100.00
70968;BME280;58629;48.808;8.820;2022-10-17T02:00:22;97689.81;;;11.24;100.00
70968;BME280;58629;48.808;8.820;2022-10-17T02:02:51;97689.06;;;11.23;100.00
70968;BME280;58629;48.808;8.820;2022-10-17T02:05:21;97690.97;;;11.23;100.00
70968;BME280;58629;48.808;8.820;2022-10-17T02:07:48;97693.63;;;11.23;100.00
70968;BME280;58629;48.808;8.820;2022-10-17T02:10:47;97693.25;;;11.21;100.00
70968;BME280;58629;48.808;8.820;2022-10-17T02:13:30;97692.19;;;11.15;100.00
70968;BME280;58629;48.808;8.820;2022-10-17T02:18:40;97682.72;;;11.14;100.00
70968;BME280;58629;48.808;8.820;2022-10-17T02:21:32;97678.91;;;11.18;100.00
70968;BME280;58629;48.808;8.820;2022-10-17T02:24:09;97681.91;;;11.20;100.00
70968;BME280;58629;48.808;8.820;2022-10-17T02:26:48;97681.09;;;11.23;100.00
70968;BME280;58629;48.808;8.820;2022-10-17T02:29:23;97684.16;;;11.22;100.00
70968;BME280;58629;48.808;8.820;2022-10-17T02:31:57;97689.44;;;11.22;100.00
70968;BME280;58629;48.808;8.820;2022-10-17T02:34:35;97693.28;;;11.17;100.00
70968;BME280;58629;48.808;8.820;2022-10-17T02:37:04;97687.25;;;11.13;100.00
70968;BME280;58629;48.808;8.820;2022-10-17T02:39:32;97696.78;;;11.07;100.00
70968;BME280;58629;48.808;8.820;2022-10-17T02:42:01;97701.75;;;11.05;100.00
70968;BME280;58629;48.808;8.820;2022-10-17T02:44:29;97698.81;;;10.96;100.00
70968;BME280;58629;48.808;8.820;2022-10-17T02:47:02;97695.06;;;10.94;100.00
70968;BME280;58629;48.808;8.820;2022-10-17T02:49:33;97694.66;;;10.95;100.00
70968;BME280;58629;48.808;8.820;2022-10-17T02:52:09;97693.91;;;10.95;100.00
70968;BME280;58629;48.808;8.820;2022-10-17T02:54:40;97699.28;;;10.88;100.00
70968;BME280;58629;48.808;8.820;2022-10-17T02:57:18;97701.16;;;10.91;100.00
70968;BME280;58629;48.808;8.820;2022-10-17T02:59:47;97704.19;;;10.89;100.00
70968;BME280;58629;48.808;8.820;2022-10-17T03:02:13;97707.97;;;10.88;100.00
70968;BME280;58629;48.808;8.820;2022-10-17T03:04:42;97698.19;;;10.85;100.00
70968;BME280;58629;48.808;8.820;2022-10-17T03:07:07;97700.47;;;10.83;100.00
70968;BME280;58629;48.808;8.820;2022-10-17T03:09:32;97702.72;;;10.85;100.00
70968;BME280;58629;48.808;8.820;2022-10-17T03:11:57;97697.47;;;10.81;100.00
70968;BME280;58629;48.808;8.820;2022-10-17T03:14:23;97695.59;;;10.78;100.00
70968;BME280;58629;48.808;8.820;2022-10-17T03:16:48;97702.06;;;10.74;100.00
70968;BME280;58629;48.808;8.820;2022-10-17T03:19:13;97707.00;;;10.72;100.00
70968;BME280;58629;48.808;8.820;2022-10-17T03:21:39;97697.19;;;10.69;100.00
70968;BME280;58629;48.808;8.820;2022-10-17T03:24:04;97702.88;;;10.67;100.00
70968;BME280;58629;48.808;8.820;2022-10-17T03:26:29;97704.41;;;10.65;100.00
70968;BME280;58629;48.808;8.820;2022-10-17T03:28:55;97710.50;;;10.62;100.00
70968;BME280;58629;48.808;8.820;2022-10-17T03:31:21;97705.59;;;10.60;100.00
70968;BME280;58629;48.808;8.820;2022-10-17T03:33:46;97707.13;;;10.58;100.00
70968;BME280;58629;48.808;8.820;2022-10-17T03:36:14;97701.47;;;10.56;100.00
70968;BME280;58629;48.808;8.820;2022-10-17T03:38:40;97704.91;;;10.53;100.00
70968;BME280;58629;48.808;8.820;2022-10-17T03:41:06;97704.53;;;10.51;100.00
70968;BME280;58629;48.808;8.820;2022-10-17T03:43:31;97703.81;;;10.46;100.00
70968;BME280;58629;48.808;8.820;2022-10-17T03:45:58;97706.13;;;10.41;100.00
70968;BME280;58629;48.808;8.820;2022-10-17T03:48:24;97708.03;;;10.40;100.00
70968;BME280;58629;48.808;8.820;2022-10-17T03:50:50;97707.66;;;10.38;100.00
70968;BME280;58629;48.808;8.820;2022-10-17T03:53:15;97712.56;;;10.40;100.00
70968;BME280;58629;48.808;8.820;2022-10-17T03:55:41;97711.06;;;10.39;100.00
70968;BME280;58629;48.808;8.820;2022-10-17T03:58:06;97720.91;;;10.38;100.00
70968;BME280;58629;48.808;8.820;2022-10-17T04:00:31;97716.75;;;10.37;100.00
70968;BME280;58629;48.808;8.820;2022-10-17T04:02:57;97732.28;;;10.35;100.00
70968;BME280;58629;48.808;8.820;2022-10-17T04:05:22;97729.25;;;10.33;100.00
70968;BME280;58629;48.808;8.820;2022-10-17T04:07:48;97730.38;;;10.32;100.00
70968;BME280;58629;48.808;8.820;2022-10-17T04:10:13;97737.97;;;10.30;100.00
70968;BME280;58629;48.808;8.820;2022-10-17T04:12:38;97739.88;;;10.30;100.00
70968;BME280;58629;48.808;8.820;2022-10-17T04:15:04;97745.56;;;10.25;100.00
70968;BME280;58629;48.808;8.820;2022-10-17T04:17:30;97745.59;;;10.21;100.00
70968;BME280;58629;48.808;8.820;2022-10-17T04:19:55;97750.16;;;10.17;100.00
70968;BME280;58629;48.808;8.820;2022-10-17T04:22:20;97745.63;;;10.14;100.00
70968;BME280;58629;48.808;8.820;2022-10-17T04:24:45;97752.44;;;10.15;100.00
70968;BME280;58629;48.808;8.820;2022-10-17T04:27:11;97755.84;;;10.16;100.00
70968;BME280;58629;48.808;8.820;2022-10-17T04:29:36;97757.75;;;10.15;100.00
70968;BME280;58629;48.808;8.820;2022-10-17T04:32:02;97760.00;;;10.17;100.00
70968;BME280;58629;48.808;8.820;2022-10-17T04:34:27;97753.97;;;10.13;100.00
70968;BME280;58629;48.808;8.820;2022-10-17T04:36:52;97763.78;;;10.12;100.00
70968;BME280;58629;48.808;8.820;2022-10-17T04:39:18;97752.47;;;10.12;100.00
70968;BME280;58629;48.808;8.820;2022-10-17T04:41:43;97758.91;;;10.11;100.00
70968;BME280;58629;48.808;8.820;2022-10-17T04:44:09;97759.66;;;10.04;100.00
70968;BME280;58629;48.808;8.820;2022-10-17T04:46:34;97762.72;;;9.99;100.00
70968;BME280;58629;48.808;8.820;2022-10-17T04:49:00;97756.69;;;9.95;100.00
70968;BME280;58629;48.808;8.820;2022-10-17T04:51:25;97758.97;;;9.93;100.00
70968;BME280;58629;48.808;8.820;2022-10-17T04:53:50;97759.72;;;9.94;100.00
70968;BME280;58629;48.808;8.820;2022-10-17T04:56:18;97757.84;;;9.94;100.00
70968;BME280;58629;48.808;8.820;2022-10-17T04:58:45;97757.09;;;9.94;100.00
70968;BME280;58629;48.808;8.820;2022-10-17T05:01:12;97758.56;;;9.95;100.00
70968;BME280;58629;48.808;8.820;2022-10-17T05:03:39;97752.13;;;9.99;100.00
70968;BME280;58629;48.808;8.820;2022-10-17T05:06:10;97747.56;;;10.03;100.00
70968;BME280;58629;48.808;8.820;2022-10-17T05:08:36;97750.59;;;10.05;100.00
70968;BME280;58629;48.808;8.820;2022-10-17T05:11:01;97747.53;;;10.07;100.00
70968;BME280;58629;48.808;8.820;2022-10-17T05:13:27;97747.56;;;10.10;100.00
70968;BME280;58629;48.808;8.820;2022-10-17T05:15:52;97744.91;;;10.07;100.00
70968;BME280;58629;48.808;8.820;2022-10-17T05:18:17;97747.19;;;10.12;100.00
70968;BME280;58629;48.808;8.820;2022-10-17T05:20:43;97747.53;;;10.07;100.00
70968;BME280;58629;48.808;8.820;2022-10-17T05:23:08;97760.03;;;10.03;100.00
70968;BME280;58629;48.808;8.820;2022-10-17T05:25:33;97761.66;;;9.83;100.00
70968;BME280;58629;48.808;8.820;2022-10-17T05:27:59;97753.75;;;9.79;100.00
70968;BME280;58629;48.808;8.820;2022-10-17T05:30:24;97757.16;;;9.80;100.00
70968;BME280;58629;48.808;8.820;2022-10-17T05:32:53;97755.31;;;9.70;100.00
70968;BME280;58629;48.808;8.820;2022-10-17T05:35:19;97755.28;;;9.73;100.00
70968;BME280;58629;48.808;8.820;2022-10-17T05:37:44;97757.53;;;9.75;100.00
70968;BME280;58629;48.808;8.820;2022-10-17T05:40:10;97759.06;;;9.76;100.00
70968;BME280;58629;48.808;8.820;2022-10-17T05:42:35;97760.56;;;9.80;100.00
70968;BME280;58629;48.808;8.820;2022-10-17T05:45:01;97759.44;;;9.78;100.00
70968;BME280;58629;48.808;8.820;2022-10-17T05:47:26;97762.03;;;9.85;100.00
70968;BME280;58629;48.808;8.820;2022-10-17T05:49:51;97762.03;;;9.85;100.00
70968;BME280;58629;48.808;8.820;2022-10-17T05:52:17;97767.69;;;9.83;100.00
70968;BME280;58629;48.808;8.820;2022-10-17T05:54:42;97766.22;;;9.79;100.00
70968;BME280;58629;48.808;8.820;2022-10-17T05:57:07;97763.19;;;9.80;100.00
70968;BME280;58629;48.808;8.820;2022-10-17T05:59:33;97766.56;;;9.81;100.00
70968;BME280;58629;48.808;8.820;2022-10-17T06:01:58;97772.63;;;9.81;100.00
70968;BME280;58629;48.808;8.820;2022-10-17T06:04:23;97771.53;;;9.75;100.00
70968;BME280;58629;48.808;8.820;2022-10-17T06:06:51;97776.03;;;9.75;100.00
70968;BME280;58629;48.808;8.820;2022-10-17T06:09:17;97780.97;;;9.76;100.00
70968;BME280;58629;48.808;8.820;2022-10-17T06:11:42;97779.81;;;9.77;100.00
70968;BME280;58629;48.808;8.820;2022-10-17T06:14:07;97779.44;;;9.82;100.00
70968;BME280;58629;48.808;8.820;2022-10-17T06:16:32;97782.81;;;9.90;100.00
70968;BME280;58629;48.808;8.820;2022-10-17T06:18:58;97781.25;;;9.96;100.00
70968;BME280;58629;48.808;8.820;2022-10-17T06:21:25;97793.31;;;10.00;100.00
70968;BME280;58629;48.808;8.820;2022-10-17T06:23:51;97795.19;;;10.03;100.00
70968;BME280;58629;48.808;8.820;2022-10-17T06:26:17;97799.72;;;10.06;100.00
70968;BME280;58629;48.808;8.820;2022-10-17T06:28:42;97800.47;;;10.10;100.00
70968;BME280;58629;48.808;8.820;2022-10-17T06:31:11;97803.13;;;10.07;100.00
70968;BME280;58629;48.808;8.820;2022-10-17T06:33:37;97805.00;;;10.06;100.00
70968;BME280;58629;48.808;8.820;2022-10-17T06:36:03;97811.13;;;9.93;100.00
70968;BME280;58629;48.808;8.820;2022-10-17T06:38:29;97816.06;;;9.87;100.00
70968;BME280;58629;48.808;8.820;2022-10-17T06:41:02;97819.84;;;9.90;100.00
70968;BME280;58629;48.808;8.820;2022-10-17T06:43:27;97824.34;;;9.96;100.00
70968;BME280;58629;48.808;8.820;2022-10-17T06:45:52;97821.69;;;10.00;100.00
70968;BME280;58629;48.808;8.820;2022-10-17T06:48:18;97835.66;;;10.00;100.00
70968;BME280;58629;48.808;8.820;2022-10-17T06:50:43;97834.53;;;10.01;100.00
70968;BME280;58629;48.808;8.820;2022-10-17T06:53:08;97834.88;;;10.07;100.00
70968;BME280;58629;48.808;8.820;2022-10-17T06:55:33;97842.81;;;10.14;100.00
70968;BME280;58629;48.808;8.820;2022-10-17T06:57:59;97849.22;;;10.20;100.00
70968;BME280;58629;48.808;8.820;2022-10-17T07:00:24;97847.31;;;10.24;100.00
70968;BME280;58629;48.808;8.820;2022-10-17T07:02:51;97846.13;;;10.32;100.00
70968;BME280;58629;48.808;8.820;2022-10-17T07:05:16;97852.16;;;10.39;100.00
70968;BME280;58629;48.808;8.820;2022-10-17T07:07:43;97854.34;;;10.52;100.00
70968;BME280;58629;48.808;8.820;2022-10-17T07:10:08;97856.50;;;10.64;100.00
70968;BME280;58629;48.808;8.820;2022-10-17T07:12:34;97858.38;;;10.70;100.00
70968;BME280;58629;48.808;8.820;2022-10-17T07:14:59;97850.75;;;10.76;100.00
70968;BME280;58629;48.808;8.820;2022-10-17T07:17:25;97855.28;;;10.82;100.00
70968;BME280;58629;48.808;8.820;2022-10-17T07:19:50;97854.44;;;10.92;100.00
70968;BME280;58629;48.808;8.820;2022-10-17T07:22:15;97852.09;;;11.01;100.00
70968;BME280;58629;48.808;8.820;2022-10-17T07:24:41;97852.00;;;11.12;100.00
70968;BME280;58629;48.808;8.820;2022-10-17T07:27:06;97856.88;;;11.20;100.00
70968;BME280;58629;48.808;8.820;2022-10-17T07:29:31;97860.56;;;11.30;100.00
70968;BME280;58629;48.808;8.820;2022-10-17T07:31:57;97862.00;;;11.38;100.00
70968;BME280;58629;48.808;8.820;2022-10-17T07:34:22;97867.97;;;11.49;100.00
70968;BME280;58629;48.808;8.820;2022-10-17T07:36:52;97856.53;;;11.56;100.00
70968;BME280;58629;48.808;8.820;2022-10-17T07:39:17;97851.50;;;11.65;100.00
70968;BME280;58629;48.808;8.820;2022-10-17T07:41:42;97863.19;;;11.74;100.00
70968;BME280;58629;48.808;8.820;2022-10-17T07:44:08;97865.00;;;11.81;100.00
70968;BME280;58629;48.808;8.820;2022-10-17T07:46:34;97875.47;;;11.95;100.00
70968;BME280;58629;48.808;8.820;2022-10-17T07:48:59;97862.50;;;12.04;100.00
70968;BME280;58629;48.808;8.820;2022-10-17T07:51:25;97872.22;;;12.14;100.00
70968;BME280;58629;48.808;8.820;2022-10-17T07:53:50;97869.06;;;12.23;100.00
70968;BME280;58629;48.808;8.820;2022-10-17T07:56:16;97866.69;;;12.32;100.00
70968;BME280;58629;48.808;8.820;2022-10-17T07:58:41;97861.22;;;12.42;100.00
70968;BME280;58629;48.808;8.820;2022-10-17T08:01:08;97859.53;;;12.55;100.00
70968;BME280;58629;48.808;8.820;2022-10-17T08:03:35;97860.84;;;12.70;100.00
70968;BME280;58629;48.808;8.820;2022-10-17T08:06:01;97855.72;;;12.83;100.00
70968;BME280;58629;48.808;8.820;2022-10-17T08:08:27;97863.69;;;13.10;100.00
70968;BME280;58629;48.808;8.820;2022-10-17T08:10:54;97866.16;;;13.43;100.00
70968;BME280;58629;48.808;8.820;2022-10-17T08:13:21;97866.75;;;13.74;100.00
70968;BME280;58629;48.808;8.820;2022-10-17T08:15:47;97861.16;;;14.08;100.00
70968;BME280;58629;48.808;8.820;2022-10-17T08:18:13;97871.31;;;14.32;99.44
70968;BME280;58629;48.808;8.820;2022-10-17T08:20:40;97874.88;;;14.45;97.63
70968;BME280;58629;48.808;8.820;2022-10-17T08:23:05;97875.47;;;14.53;95.90
70968;BME280;58629;48.808;8.820;2022-10-17T08:25:30;97872.00;;;14.72;97.03
70968;BME280;58629;48.808;8.820;2022-10-17T08:27:56;97868.91;;;14.90;95.71
70968;BME280;58629;48.808;8.820;2022-10-17T08:30:22;97879.94;;;15.08;93.70
70968;BME280;58629;48.808;8.820;2022-10-17T08:32:47;97878.09;;;15.21;92.91
70968;BME280;58629;48.808;8.820;2022-10-17T08:35:13;97875.00;;;15.38;90.73
70968;BME280;58629;48.808;8.820;2022-10-17T08:37:39;97865.06;;;15.55;91.29
70968;BME280;58629;48.808;8.820;2022-10-17T08:40:04;97870.88;;;15.66;91.44
70968;BME280;58629;48.808;8.820;2022-10-17T08:42:44;97869.34;;;15.81;90.41
70968;BME280;58629;48.808;8.820;2022-10-17T08:45:53;97875.88;;;15.93;90.38
70968;BME280;58629;48.808;8.820;2022-10-17T08:48:24;97878.38;;;16.00;90.75
70968;BME280;58629;48.808;8.820;2022-10-17T08:50:54;97876.25;;;16.07;91.14
70968;BME280;58629;48.808;8.820;2022-10-17T08:55:50;97875.00;;;16.24;91.50
70968;BME280;58629;48.808;8.820;2022-10-17T08:58:24;97874.38;;;16.33;91.71
70968;BME280;58629;48.808;8.820;2022-10-17T09:01:12;97876.25;;;16.48;89.89
70968;BME280;58629;48.808;8.820;2022-10-17T09:09:31;97868.66;;;16.85;87.48
70968;BME280;58629;48.808;8.820;2022-10-17T09:20:27;97869.81;;;17.43;83.84
70968;BME280;58629;48.808;8.820;2022-10-17T09:22:59;97867.97;;;17.65;81.78
70968;BME280;58629;48.808;8.820;2022-10-17T09:25:26;97866.19;;;17.84;81.15
70968;BME280;58629;48.808;8.820;2022-10-17T09:33:11;97866.41;;;18.20;80.64
70968;BME280;58629;48.808;8.820;2022-10-17T09:35:37;97867.84;;;18.34;80.75
70968;BME280;58629;48.808;8.820;2022-10-17T09:38:03;97864.66;;;18.48;79.09
70968;BME280;58629;48.808;8.820;2022-10-17T09:40:33;97864.28;;;18.67;77.17
70968;BME280;58629;48.808;8.820;2022-10-17T09:43:04;97870.63;;;18.91;75.84
70968;BME280;58629;48.808;8.820;2022-10-17T09:45:32;97866.66;;;19.05;75.84
70968;BME280;58629;48.808;8.820;2022-10-17T09:48:24;97871.56;;;19.16;75.29
70968;BME280;58629;48.808;8.820;2022-10-17T09:50:50;97863.25;;;19.23;73.44
70968;BME280;58629;48.808;8.820;2022-10-17T09:53:25;97867.28;;;19.27;73.59
70968;BME280;58629;48.808;8.820;2022-10-17T09:55:59;97871.06;;;19.39;72.92
70968;BME280;58629;48.808;8.820;2022-10-17T09:58:43;97863.28;;;19.50;72.33
70968;BME280;58629;48.808;8.820;2022-10-17T10:01:26;97866.88;;;19.56;72.80
70968;BME280;58629;48.808;8.820;2022-10-17T10:04:12;97864.94;;;19.65;73.00
70968;BME280;58629;48.808;8.820;2022-10-17T10:06:39;97876.13;;;19.73;72.78
70968;BME280;58629;48.808;8.820;2022-10-17T10:09:05;97878.22;;;19.78;73.20
70968;BME280;58629;48.808;8.820;2022-10-17T10:11:49;97879.41;;;19.86;72.85
70968;BME280;58629;48.808;8.820;2022-10-17T10:14:22;97871.78;;;19.94;71.88
70968;BME280;58629;48.808;8.820;2022-10-17T10:16:49;97869.06;;;20.03;72.32
70968;BME280;58629;48.808;8.820;2022-10-17T10:21:56;97872.38;;;20.16;70.97
70968;BME280;58629;48.808;8.820;2022-10-17T10:24:22;97872.66;;;20.18;69.72
70968;BME280;58629;48.808;8.820;2022-10-17T10:26:49;97878.78;;;20.27;69.55
70968;BME280;58629;48.808;8.820;2022-10-17T10:29:22;97882.19;;;20.46;67.69
70968;BME280;58629;48.808;8.820;2022-10-17T10:31:49;97877.81;;;20.48;68.73
70968;BME280;58629;48.808;8.820;2022-10-17T10:34:25;97875.56;;;20.56;69.30
70968;BME280;58629;48.808;8.820;2022-10-17T10:37:00;97876.59;;;20.58;68.77
70968;BME280;58629;48.808;8.820;2022-10-17T10:39:33;97873.13;;;20.67;67.67
70968;BME280;58629;48.808;8.820;2022-10-17T10:42:01;97876.09;;;20.69;65.26
70968;BME280;58629;48.808;8.820;2022-10-17T10:44:28;97872.66;;;20.78;65.61
70968;BME280;58629;48.808;8.820;2022-10-17T10:47:08;97881.13;;;20.85;64.66
70968;BME280;58629;48.808;8.820;2022-10-17T10:49:38;97874.03;;;20.97;65.92
70968;BME280;58629;48.808;8.820;2022-10-17T10:52:04;97868.19;;;20.98;66.75
70968;BME280;58629;48.808;8.820;2022-10-17T10:54:36;97872.34;;;21.08;65.44
70968;BME280;58629;48.808;8.820;2022-10-17T10:57:05;97866.75;;;21.21;66.05
70968;BME280;58629;48.808;8.820;2022-10-17T10:59:42;97878.50;;;21.32;64.07
70968;BME280;58629;48.808;8.820;2022-10-17T11:02:22;97869.91;;;21.43;60.76
70968;BME280;58629;48.808;8.820;2022-10-17T11:04:54;97861.84;;;21.57;63.22
70968;BME280;58629;48.808;8.820;2022-10-17T11:07:24;97871.00;;;21.75;59.35
70968;BME280;58629;48.808;8.820;2022-10-17T11:10:14;97868.53;;;21.86;59.54
70968;BME280;58629;48.808;8.820;2022-10-17T11:13:03;97866.97;;;21.94;60.76
70968;BME280;58629;48.808;8.820;2022-10-17T11:18:07;97874.59;;;22.10;58.80
70968;BME280;58629;48.808;8.820;2022-10-17T11:20:44;97870.88;;;22.22;60.22
70968;BME280;58629;48.808;8.820;2022-10-17T11:25:47;97869.66;;;22.52;57.51
70968;BME280;58629;48.808;8.820;2022-10-17T11:28:16;97859.69;;;22.73;57.63
70968;BME280;58629;48.808;8.820;2022-10-17T11:30:50;97865.31;;;22.89;56.21
70968;BME280;58629;48.808;8.820;2022-10-17T11:33:28;97869.78;;;22.92;54.01
70968;BME280;58629;48.808;8.820;2022-10-17T11:36:00;97872.81;;;23.00;56.13
70968;BME280;58629;48.808;8.820;2022-10-17T11:38:44;97868.22;;;23.06;55.59
70968;BME280;58629;48.808;8.820;2022-10-17T11:41:28;97863.84;;;23.08;56.01
70968;BME280;58629;48.808;8.820;2022-10-17T11:44:00;97872.44;;;23.07;54.68
70968;BME280;58629;48.808;8.820;2022-10-17T11:46:28;97869.72;;;23.07;54.74
70968;BME280;58629;48.808;8.820;2022-10-17T11:49:16;97867.69;;;23.02;55.05
70968;BME280;58629;48.808;8.820;2022-10-17T11:51:44;97867.03;;;23.07;56.18
70968;BME280;58629;48.808;8.820;2022-10-17T11:54:15;97869.94;;;23.03;57.70
70968;BME280;58629;48.808;8.820;2022-10-17T11:56:57;97867.09;;;23.12;57.31
70968;BME280;58629;48.808;8.820;2022-10-17T11:59:57;97876.06;;;23.04;55.49
70968;BME280;58629;48.808;8.820;2022-10-17T12:05:19;97873.53;;;23.15;56.19
70968;BME280;58629;48.808;8.820;2022-10-17T12:08:00;97885.75;;;23.31;57.70
70968;BME280;58629;48.808;8.820;2022-10-17T12:10:50;97885.75;;;23.31;58.35
70968;BME280;58629;48.808;8.820;2022-10-17T12:16:35;97870.59;;;23.33;57.40
70968;BME280;58629;48.808;8.820;2022-10-17T12:18:43;97876.59;;;23.43;55.88
70968;BME280;58629;48.808;8.820;2022-10-17T12:21:08;97876.41;;;23.46;55.59
70968;BME280;58629;48.808;8.820;2022-10-17T12:23:34;97874.91;;;23.45;54.74
70968;BME280;58629;48.808;8.820;2022-10-17T12:26:04;97881.47;;;23.39;54.71
70968;BME280;58629;48.808;8.820;2022-10-17T12:33:48;97875.09;;;23.42;56.92
70968;BME280;58629;48.808;8.820;2022-10-17T12:38:44;97870.44;;;23.42;52.31
70968;BME280;58629;48.808;8.820;2022-10-17T12:41:09;97873.38;;;23.39;52.98
70968;BME280;58629;48.808;8.820;2022-10-17T12:43:46;97868.66;;;23.19;52.99
70968;BME280;58629;48.808;8.820;2022-10-17T12:52:16;97876.28;;;23.20;52.85
70968;BME280;58629;48.808;8.820;2022-10-17T12:54:45;97875.72;;;23.31;53.28
70968;BME280;58629;48.808;8.820;2022-10-17T12:57:20;97879.69;;;23.36;50.13
70968;BME280;58629;48.808;8.820;2022-10-17T12:59:47;97879.97;;;23.38;50.59
70968;BME280;58629;48.808;8.820;2022-10-17T13:02:19;97878.22;;;23.35;49.92
70968;BME280;58629;48.808;8.820;2022-10-17T13:04:46;97880.72;;;23.38;52.51
70968;BME280;58629;48.808;8.820;2022-10-17T13:07:18;97883.31;;;23.47;51.75
70968;BME280;58629;48.808;8.820;2022-10-17T13:09:44;97886.81;;;23.33;51.41
70968;BME280;58629;48.808;8.820;2022-10-17T13:12:13;97893.03;;;23.39;51.30
70968;BME280;58629;48.808;8.820;2022-10-17T13:14:40;97896.34;;;23.49;52.82
70968;BME280;58629;48.808;8.820;2022-10-17T13:17:21;97890.06;;;23.37;48.95
70968;BME280;58629;48.808;8.820;2022-10-17T13:19:46;97898.81;;;23.32;50.42
70968;BME280;58629;48.808;8.820;2022-10-17T13:22:29;97897.97;;;23.26;51.82
70968;BME280;58629;48.808;8.820;2022-10-17T13:25:08;97901.31;;;23.36;51.50
70968;BME280;58629;48.808;8.820;2022-10-17T13:27:35;97897.72;;;23.24;51.78
70968;BME280;58629;48.808;8.820;2022-10-17T13:30:24;97899.13;;;23.19;51.46
70968;BME280;58629;48.808;8.820;2022-10-17T13:32:50;97906.16;;;23.11;51.62
70968;BME280;58629;48.808;8.820;2022-10-17T13:35:23;97897.13;;;23.00;49.31
70968;BME280;58629;48.808;8.820;2022-10-17T13:37:49;97903.63;;;23.08;51.79
70968;BME280;58629;48.808;8.820;2022-10-17T13:40:22;97910.31;;;23.12;50.85
70968;BME280;58629;48.808;8.820;2022-10-17T13:42:48;97907.47;;;23.01;52.86
70968;BME280;58629;48.808;8.820;2022-10-17T13:45:23;97912.38;;;22.68;51.43
70968;BME280;58629;48.808;8.820;2022-10-17T13:47:50;97911.44;;;22.57;51.12
70968;BME280;58629;48.808;8.820;2022-10-17T13:50:37;97923.09;;;22.48;51.58
70968;BME280;58629;48.808;8.820;2022-10-17T13:53:16;97916.00;;;22.36;55.01
70968;BME280;58629;48.808;8.820;2022-10-17T13:58:22;97925.03;;;22.48;53.06
70968;BME280;58629;48.808;8.820;2022-10-17T14:00:48;97923.66;;;22.52;51.20
70968;BME280;58629;48.808;8.820;2022-10-17T14:03:17;97921.06;;;22.58;53.54
70968;BME280;58629;48.808;8.820;2022-10-17T14:06:02;97928.41;;;22.72;52.55
70968;BME280;58629;48.808;8.820;2022-10-17T14:08:30;97925.78;;;22.77;50.99
70968;BME280;58629;48.808;8.820;2022-10-17T14:10:56;97923.72;;;22.87;50.03